Time;durP1;ratioP1;P1;durP2;ratioP2;P2;SDS_P1;SDS_P2;PMS_P1;PMS_P2;Temp;Humidity;BMP_temperature;BMP_pressure;BME280_temperature;BME280_humidity;BME280_pressure;Samples;Min_cycle;Max_cycle;Signal;HPM_P1;HPM_P2
2023/12/31 00:02:10;;;;;;;29.27;14.10;;;;;;;9.07;80.88;99453.81;5089356;28;20089;-85
2023/12/31 00:04:35;;;;;;;27.93;14.03;;;;;;;9.12;81.31;99449.38;5089242;28;20035;-82
2023/12/31 00:07:01;;;;;;;27.33;13.60;;;;;;;9.22;80.97;99449.25;5089251;28;20024;-85
2023/12/31 00:09:26;;;;;;;28.47;14.13;;;;;;;9.21;82.56;99447.53;5089473;28;20048;-84
2023/12/31 00:11:52;;;;;;;28.60;16.17;;;;;;;9.30;81.71;99457.94;5089126;28;20285;-83
2023/12/31 00:14:17;;;;;;;27.77;15.40;;;;;;;9.36;81.49;99439.47;5088656;28;20027;-83
2023/12/31 00:16:42;;;;;;;29.27;14.50;;;;;;;9.43;81.13;99430.59;5088636;28;20106;-83
2023/12/31 00:19:08;;;;;;;29.03;13.67;;;;;;;9.51;81.06;99411.22;5089075;28;20020;-83
2023/12/31 00:21:33;;;;;;;27.90;14.48;;;;;;;9.54;81.17;99432.25;5102452;28;20102;-85
2023/12/31 00:23:58;;;;;;;28.57;15.07;;;;;;;9.56;81.54;99419.94;5108122;28;20036;-84
2023/12/31 00:26:24;;;;;;;28.73;14.50;;;;;;;9.59;81.08;99398.88;5096519;28;20403;-85
2023/12/31 00:28:49;;;;;;;30.53;15.00;;;;;;;9.63;80.71;99395.31;5088824;28;20020;-83
2023/12/31 00:31:15;;;;;;;26.33;13.67;;;;;;;9.63;81.39;99384.78;5074246;28;20127;-84
2023/12/31 00:33:40;;;;;;;29.03;15.13;;;;;;;9.62;81.81;99370.75;5092794;28;20274;-84
2023/12/31 00:36:06;;;;;;;29.10;12.97;;;;;;;9.67;81.77;99368.06;5092769;28;20286;-83
2023/12/31 00:38:31;;;;;;;29.67;14.73;;;;;;;9.70;81.58;99349.63;5093273;28;20055;-82
2023/12/31 00:40:56;;;;;;;26.07;13.93;;;;;;;9.72;81.69;99353.09;5092618;28;20393;-83
2023/12/31 00:43:22;;;;;;;32.40;16.00;;;;;;;9.70;81.88;99340.88;5092611;28;20270;-83
2023/12/31 00:45:47;;;;;;;28.27;14.90;;;;;;;9.75;81.80;99345.16;5092372;28;20024;-85
2023/12/31 00:48:13;;;;;;;29.60;16.77;;;;;;;9.75;82.63;99347.78;5092727;28;20020;-85
2023/12/31 00:50:38;;;;;;;25.70;13.67;;;;;;;9.80;81.82;99349.50;5092519;28;20059;-84
2023/12/31 00:53:03;;;;;;;29.97;14.57;;;;;;;9.79;81.81;99342.50;5092508;28;20284;-81
2023/12/31 00:55:29;;;;;;;31.97;17.93;;;;;;;9.77;82.17;99346.03;5092400;28;20078;-84
2023/12/31 00:57:54;;;;;;;26.87;16.13;;;;;;;9.75;82.49;99345.16;5092999;28;20031;-84
2023/12/31 01:00:20;;;;;;;29.10;14.47;;;;;;;9.75;82.36;99339.03;5092293;28;20511;-84
2023/12/31 01:02:45;;;;;;;25.58;13.85;;;;;;;9.79;82.05;99332.84;5092606;28;20108;-85
2023/12/31 01:05:11;;;;;;;27.07;13.60;;;;;;;9.80;82.22;99338.97;5092544;28;20028;-85
2023/12/31 01:07:36;;;;;;;26.65;13.95;;;;;;;9.82;82.29;99332.78;5092503;28;20667;-83
2023/12/31 01:10:03;;;;;;;28.00;13.77;;;;;;;9.83;82.32;99338.94;5092014;28;20028;-84
2023/12/31 01:12:28;;;;;;;33.92;14.45;;;;;;;9.77;82.47;99340.78;5073931;28;20057;-84
2023/12/31 01:14:53;;;;;;;28.60;14.60;;;;;;;9.80;82.23;99333.72;5091281;28;20138;-84
2023/12/31 01:17:19;;;;;;;28.10;15.07;;;;;;;9.77;82.78;99327.63;5091909;28;20476;-83
2023/12/31 01:19:44;;;;;;;29.60;15.37;;;;;;;9.75;82.44;99326.75;5091974;28;20098;-83
2023/12/31 01:22:09;;;;;;;30.67;14.87;;;;;;;9.72;82.51;99332.06;5110544;28;20512;-84
2023/12/31 01:24:35;;;;;;;33.07;15.87;;;;;;;9.75;82.87;99323.28;5110864;28;20032;-86
2023/12/31 01:27:00;;;;;;;29.50;15.70;;;;;;;9.72;83.30;99300.50;5076063;28;20668;-82
2023/12/31 01:29:25;;;;;;;29.10;15.00;;;;;;;9.74;82.91;99314.50;5091459;28;20024;-84
2023/12/31 01:31:52;;;;;;;31.60;18.43;;;;;;;9.77;83.06;99301.34;5091758;28;20157;-87
2023/12/31 01:34:17;;;;;;;30.90;16.00;;;;;;;9.73;82.88;99312.75;5073333;28;20031;-84
2023/12/31 01:36:43;;;;;;;29.97;16.13;;;;;;;9.73;83.01;99307.50;5073520;28;20032;-85
2023/12/31 01:39:08;;;;;;;29.33;14.87;;;;;;;9.70;83.15;99302.31;5091883;28;20365;-83
2023/12/31 01:41:34;;;;;;;28.57;14.73;;;;;;;9.69;82.97;99300.56;5090731;28;20055;-85
2023/12/31 01:44:03;;;;;;;28.60;15.93;;;;;;;9.73;82.69;99283.00;5091288;28;20275;-85
2023/12/31 01:46:31;;;;;;;26.85;14.73;;;;;;;9.71;82.33;99277.75;5091588;28;20024;-83
2023/12/31 01:48:58;;;;;;;26.13;15.47;;;;;;;9.57;83.54;99291.13;5073193;28;20407;-82
2023/12/31 01:51:24;;;;;;;31.67;14.60;;;;;;;9.68;82.91;99288.31;5091496;28;20476;-83
2023/12/31 01:53:50;;;;;;;30.77;15.77;;;;;;;9.71;83.04;99277.75;5091159;28;20445;-84
2023/12/31 01:56:16;;;;;;;31.63;19.47;;;;;;;9.70;83.04;99260.25;5091383;28;20035;-82
2023/12/31 01:58:42;;;;;;;32.13;16.15;;;;;;;9.71;83.04;99263.75;5090882;28;20074;-84
2023/12/31 02:01:09;;;;;;;33.15;15.30;;;;;;;9.72;83.19;99266.34;5091436;28;20610;-85
2023/12/31 02:03:35;;;;;;;32.20;16.52;;;;;;;9.70;82.76;99270.75;5091468;28;20491;-83
2023/12/31 02:06:01;;;;;;;29.70;15.25;;;;;;;9.66;82.61;99258.56;5091063;28;20024;-83
2023/12/31 02:08:27;;;;;;;36.00;16.23;;;;;;;9.66;82.90;99242.78;5091209;28;20103;-82
2023/12/31 02:10:52;;;;;;;30.05;14.85;;;;;;;9.67;82.85;99255.03;5091019;28;20028;-83
2023/12/31 02:13:18;;;;;;;33.80;17.00;;;;;;;9.69;82.87;99258.50;5090772;28;20031;-83
2023/12/31 02:15:43;;;;;;;33.55;17.60;;;;;;;9.67;83.16;99256.81;5090472;28;20020;-82
2023/12/31 02:18:09;;;;;;;34.80;19.83;;;;;;;9.70;82.59;99264.66;5090946;28;20020;-83
2023/12/31 02:20:34;;;;;;;29.50;15.37;;;;;;;9.64;82.96;99281.38;5096156;28;20023;-84
2023/12/31 02:23:00;;;;;;;30.37;15.33;;;;;;;9.66;82.62;99287.47;5111216;28;20076;-82
2023/12/31 02:25:28;;;;;;;33.13;16.45;;;;;;;9.71;82.47;99293.53;5105191;28;20364;-82
2023/12/31 02:27:54;;;;;;;29.37;14.80;;;;;;;9.66;82.81;99287.47;5090803;28;20036;-85
2023/12/31 02:30:21;;;;;;;35.35;16.55;;;;;;;9.65;82.96;99298.88;5090315;28;20111;-83
2023/12/31 02:32:46;;;;;;;34.63;18.63;;;;;;;9.67;83.02;99306.75;5090696;28;20056;-86
2023/12/31 02:35:12;;;;;;;33.93;19.00;;;;;;;9.65;83.11;99304.16;5090533;28;20055;-84
2023/12/31 02:37:37;;;;;;;33.78;17.23;;;;;;;9.68;82.59;99311.13;5090860;28;20051;-83
2023/12/31 02:40:03;;;;;;;34.23;17.83;;;;;;;9.69;82.31;99340.00;5090611;28;20111;-82
2023/12/31 02:42:29;;;;;;;34.47;19.65;;;;;;;9.72;82.85;99345.22;5090564;28;20513;-86
2023/12/31 02:44:54;;;;;;;40.30;19.33;;;;;;;9.71;82.53;99356.63;5089844;28;20029;-83
2023/12/31 02:47:19;;;;;;;38.03;16.73;;;;;;;9.71;82.42;99361.03;5090552;28;20419;-83
2023/12/31 02:49:45;;;;;;;29.43;14.50;;;;;;;9.65;83.24;99369.88;5090387;28;20549;-83
2023/12/31 02:52:11;;;;;;;34.05;18.30;;;;;;;9.72;83.30;99366.25;5090004;28;20062;-86
2023/12/31 02:54:37;;;;;;;33.23;15.90;;;;;;;9.73;82.82;99362.72;5089212;28;20559;-83
2023/12/31 02:57:06;;;;;;;31.80;17.73;;;;;;;9.71;82.82;99353.13;5071833;28;20099;-85
2023/12/31 02:59:32;;;;;;;31.33;15.43;;;;;;;9.70;82.92;99347.00;5089747;28;20049;-84
2023/12/31 03:01:57;;;;;;;34.23;16.43;;;;;;;9.70;82.68;99335.63;5072110;28;20036;-83
2023/12/31 03:04:23;;;;;;;34.20;18.07;;;;;;;9.68;82.78;99335.63;5090274;28;20028;-83
2023/12/31 03:06:51;;;;;;;30.17;15.73;;;;;;;9.63;83.26;99348.00;5089874;28;20274;-83
2023/12/31 03:09:21;;;;;;;35.70;18.10;;;;;;;9.71;83.27;99375.03;5090172;28;20016;-87
2023/12/31 03:11:47;;;;;;;33.23;16.77;;;;;;;9.73;82.85;99378.50;5090286;28;20110;-84
2023/12/31 03:14:13;;;;;;;35.28;15.35;;;;;;;9.76;82.57;99380.22;5089518;28;20036;-86
2023/12/31 03:16:45;;;;;;;33.55;15.77;;;;;;;9.76;82.98;99386.31;5089720;28;20059;-84
2023/12/31 03:19:12;;;;;;;35.00;16.58;;;;;;;9.77;82.46;99381.94;5090017;28;20144;-83
2023/12/31 03:21:37;;;;;;;27.95;14.63;;;;;;;9.81;82.58;99381.00;5103786;28;20042;-83
2023/12/31 03:24:03;;;;;;;30.07;14.33;;;;;;;9.80;82.42;99379.28;5090389;28;20043;-86
2023/12/31 03:26:29;;;;;;;30.87;15.27;;;;;;;9.80;82.69;99381.06;5096501;28;20020;-84
2023/12/31 03:28:54;;;;;;;29.05;14.93;;;;;;;9.80;82.34;99376.66;5089245;28;20035;-86
2023/12/31 03:31:19;;;;;;;28.93;14.00;;;;;;;9.81;82.41;99362.59;5089756;28;20140;-82
2023/12/31 03:33:46;;;;;;;32.33;16.27;;;;;;;9.79;82.70;99355.66;5089939;28;20028;-84
2023/12/31 03:36:11;;;;;;;28.67;13.40;;;;;;;9.80;82.05;99352.13;5089623;28;20369;-84
2023/12/31 03:38:37;;;;;;;28.43;14.00;;;;;;;9.79;82.37;99358.28;5089740;28;20105;-84
2023/12/31 03:41:02;;;;;;;25.57;13.50;;;;;;;9.79;82.12;99366.16;5089568;28;20060;-83
2023/12/31 03:43:28;;;;;;;30.80;13.43;;;;;;;9.80;82.02;99362.66;5089675;28;20040;-84
2023/12/31 03:45:53;;;;;;;30.60;13.27;;;;;;;9.81;81.75;99361.75;5088967;28;20428;-84
2023/12/31 03:48:18;;;;;;;29.03;13.97;;;;;;;9.80;82.29;99354.75;5089620;28;20028;-83
2023/12/31 03:50:44;;;;;;;29.20;15.20;;;;;;;9.77;82.01;99363.53;5089898;28;20111;-86
2023/12/31 03:53:09;;;;;;;27.67;14.13;;;;;;;9.79;82.02;99364.38;5070965;28;20363;-83
2023/12/31 03:55:34;;;;;;;32.07;14.10;;;;;;;9.79;82.04;99372.28;5089446;28;20089;-86
2023/12/31 03:58:00;;;;;;;26.10;13.60;;;;;;;9.79;82.06;99374.06;5071258;28;20267;-83
2023/12/31 04:00:25;;;;;;;25.97;13.53;;;;;;;9.79;81.58;99379.31;5089000;28;20028;-83
2023/12/31 04:02:50;;;;;;;24.90;13.67;;;;;;;9.75;82.08;99379.34;5089119;28;20031;-83
2023/12/31 04:05:16;;;;;;;27.87;13.40;;;;;;;9.76;81.79;99374.97;5091437;28;20020;-83
2023/12/31 04:07:41;;;;;;;31.97;16.20;;;;;;;9.74;82.34;99377.59;5093468;28;20024;-84
2023/12/31 04:10:07;;;;;;;24.90;13.20;;;;;;;9.75;82.04;99376.69;5093186;28;20274;-83
2023/12/31 04:12:32;;;;;;;27.03;13.73;;;;;;;9.75;81.91;99367.97;5093338;28;20065;-83
2023/12/31 04:14:57;;;;;;;26.67;13.10;;;;;;;9.74;82.16;99367.09;5092798;28;20111;-83
2023/12/31 04:17:24;;;;;;;28.67;13.43;;;;;;;9.77;82.18;99372.31;5093062;28;20051;-83
2023/12/31 04:19:49;;;;;;;27.90;13.93;;;;;;;9.80;81.66;99375.78;5093491;28;20069;-83
2023/12/31 04:22:14;;;;;;;32.00;13.80;;;;;;;9.80;82.14;99375.78;5112595;28;20051;-85
2023/12/31 04:24:40;;;;;;;26.77;13.53;;;;;;;9.81;82.14;99383.63;5112164;28;20051;-82
2023/12/31 04:27:05;;;;;;;26.23;13.03;;;;;;;9.80;82.16;99386.31;5076424;28;20055;-84
2023/12/31 04:29:31;;;;;;;25.70;12.63;;;;;;;9.77;82.16;99398.63;5093078;28;20024;-84
2023/12/31 04:31:56;;;;;;;27.83;12.50;;;;;;;9.79;82.07;99405.59;5092818;28;20043;-83
2023/12/31 04:34:21;;;;;;;28.33;13.83;;;;;;;9.81;81.82;99409.09;5074371;28;20028;-84
2023/12/31 04:36:47;;;;;;;26.97;13.30;;;;;;;9.81;82.27;99419.59;5092919;28;20824;-87
2023/12/31 04:39:12;;;;;;;26.33;12.90;;;;;;;9.80;82.00;99417.88;5093015;28;20065;-84
2023/12/31 04:41:38;;;;;;;22.85;12.70;;;;;;;9.79;82.30;99426.66;5093049;28;20097;-85
2023/12/31 04:44:04;;;;;;;27.57;12.80;;;;;;;9.83;82.06;99437.06;5092559;28;20028;-83
2023/12/31 04:46:30;;;;;;;23.90;12.68;;;;;;;9.84;81.75;99453.72;5092900;28;20039;-83
2023/12/31 04:48:56;;;;;;;25.80;12.77;;;;;;;9.84;81.53;99459.00;5092595;28;20024;-83
2023/12/31 04:51:24;;;;;;;28.40;13.35;;;;;;;9.79;81.31;99463.44;5092548;28;20656;-83
2023/12/31 04:53:51;;;;;;;28.50;13.40;;;;;;;9.77;81.48;99460.84;5092616;28;20063;-83
2023/12/31 04:56:20;;;;;;;24.92;13.32;;;;;;;9.72;81.67;99474.03;5092498;28;20107;-83
2023/12/31 04:58:49;;;;;;;25.00;12.70;;;;;;;9.67;81.51;99467.13;5092026;28;20085;-85
2023/12/31 05:01:15;;;;;;;29.63;12.43;;;;;;;9.63;81.52;99468.91;5092476;28;20031;-82
2023/12/31 05:03:40;;;;;;;25.03;12.73;;;;;;;9.60;81.51;99468.94;5092233;28;20392;-83
2023/12/31 05:06:06;;;;;;;24.47;12.77;;;;;;;9.58;81.76;99473.34;5092506;28;20353;-83
2023/12/31 05:08:31;;;;;;;30.17;12.70;;;;;;;9.55;81.68;99476.88;5092664;28;20503;-82
2023/12/31 05:10:57;;;;;;;22.50;12.85;;;;;;;9.50;81.82;99468.19;5091997;28;20527;-82
2023/12/31 05:13:22;;;;;;;30.93;12.93;;;;;;;9.44;81.88;99473.53;5092144;28;20028;-82
2023/12/31 05:15:47;;;;;;;28.27;13.37;;;;;;;9.41;81.46;99478.84;5090833;28;20012;-83
2023/12/31 05:18:13;;;;;;;26.70;13.33;;;;;;;9.38;81.47;99484.97;5091498;28;20028;-83
2023/12/31 05:20:38;;;;;;;24.70;12.53;;;;;;;9.33;81.61;99487.66;5097581;28;20145;-83
2023/12/31 05:23:03;;;;;;;24.87;11.97;;;;;;;9.29;81.59;99483.31;5112323;28;20028;-82
2023/12/31 05:25:29;;;;;;;23.57;12.83;;;;;;;9.28;81.83;99485.97;5105858;28;20358;-82
2023/12/31 05:27:54;;;;;;;26.83;12.00;;;;;;;9.25;81.65;99483.38;5091528;28;20388;-84
2023/12/31 05:30:20;;;;;;;26.63;12.20;;;;;;;9.21;81.54;99493.06;5091180;28;20101;-83
2023/12/31 05:32:45;;;;;;;24.65;11.63;;;;;;;9.16;81.38;99485.22;5091695;28;20035;-82
2023/12/31 05:35:11;;;;;;;24.23;12.67;;;;;;;9.03;81.82;99494.09;5073221;28;20028;-83
2023/12/31 05:37:36;;;;;;;26.10;13.30;;;;;;;8.98;81.92;99483.66;5091672;28;20016;-83
2023/12/31 05:40:04;;;;;;;27.50;12.40;;;;;;;8.97;81.86;99500.31;5073485;28;20554;-84
2023/12/31 05:42:29;;;;;;;23.85;12.38;;;;;;;8.96;81.85;99498.56;5091469;28;20020;-83
2023/12/31 05:44:54;;;;;;;27.47;13.67;;;;;;;8.95;81.74;99490.69;5091175;28;20028;-83
2023/12/31 05:47:20;;;;;;;28.83;13.85;;;;;;;8.87;81.70;99489.03;5092014;28;20016;-83
2023/12/31 05:49:45;;;;;;;28.40;13.17;;;;;;;8.82;81.98;99496.09;5073198;28;20020;-84
2023/12/31 05:52:10;;;;;;;26.90;13.00;;;;;;;8.81;81.93;99499.59;5091264;28;20051;-83
2023/12/31 05:54:42;;;;;;;28.70;13.83;;;;;;;8.82;81.58;99505.69;5091310;28;20024;-82
2023/12/31 05:57:07;;;;;;;31.52;14.00;;;;;;;8.80;81.81;99496.97;5091088;28;20060;-83
2023/12/31 05:59:33;;;;;;;24.97;12.90;;;;;;;8.79;81.71;99511.84;5090703;28;20070;-83
2023/12/31 06:01:58;;;;;;;27.08;12.93;;;;;;;8.78;82.02;99504.84;5091179;28;20020;-82
2023/12/31 06:04:23;;;;;;;24.87;12.27;;;;;;;8.79;81.79;99511.84;5073106;28;20039;-85
2023/12/31 06:06:49;;;;;;;26.70;13.67;;;;;;;8.77;81.54;99503.09;5091282;28;20464;-86
2023/12/31 06:09:14;;;;;;;27.40;14.07;;;;;;;8.75;81.62;99505.75;5073088;28;20028;-83
2023/12/31 06:11:40;;;;;;;28.57;13.63;;;;;;;8.73;81.55;99514.53;5090974;28;20032;-82
2023/12/31 06:14:07;;;;;;;27.55;13.75;;;;;;;8.70;81.62;99507.56;5090374;28;20027;-83
2023/12/31 06:16:32;;;;;;;28.17;13.20;;;;;;;8.68;81.78;99508.44;5090525;28;20032;-82
2023/12/31 06:18:58;;;;;;;27.95;13.60;;;;;;;8.67;81.65;99506.72;5090847;28;20077;-84
2023/12/31 06:21:23;;;;;;;33.47;15.40;;;;;;;8.66;81.70;99518.09;5102818;28;20403;-82
2023/12/31 06:23:49;;;;;;;27.40;13.73;;;;;;;8.67;81.68;99532.97;5097966;28;20416;-84
2023/12/31 06:26:14;;;;;;;27.27;13.60;;;;;;;8.68;81.94;99537.31;5099492;28;20024;-83
2023/12/31 06:28:39;;;;;;;28.83;14.13;;;;;;;8.69;81.69;99544.31;5090250;28;20297;-83
2023/12/31 06:31:05;;;;;;;29.30;13.87;;;;;;;8.71;81.74;99550.41;5090530;28;20053;-83
2023/12/31 06:33:30;;;;;;;29.30;14.63;;;;;;;8.72;81.49;99558.28;5090395;28;20534;-83
2023/12/31 06:35:57;;;;;;;30.58;14.20;;;;;;;8.74;81.36;99571.38;5072233;28;20204;-83
2023/12/31 06:38:22;;;;;;;31.27;14.57;;;;;;;8.75;81.67;99573.13;5090574;28;20272;-83
2023/12/31 06:40:48;;;;;;;30.33;14.03;;;;;;;8.74;81.57;99576.63;5090410;28;20436;-82
2023/12/31 06:43:13;;;;;;;32.20;16.17;;;;;;;8.73;81.36;99588.91;5072302;28;20031;-83
2023/12/31 06:45:40;;;;;;;33.67;16.83;;;;;;;8.71;82.29;99593.31;5090371;28;20055;-83
2023/12/31 06:48:06;;;;;;;37.03;18.10;;;;;;;8.69;82.64;99588.94;5090369;28;20031;-82
2023/12/31 06:50:34;;;;;;;32.73;14.97;;;;;;;8.71;82.24;99614.31;5090150;28;20054;-83
2023/12/31 06:52:59;;;;;;;35.63;16.48;;;;;;;8.72;82.17;99616.03;5089908;28;20051;-84
2023/12/31 06:55:25;;;;;;;37.77;16.90;;;;;;;8.74;82.37;99609.03;5090202;28;20051;-82
2023/12/31 06:57:50;;;;;;;36.33;17.93;;;;;;;8.76;82.58;99614.25;5072003;28;20758;-82
2023/12/31 07:00:16;;;;;;;36.93;16.23;;;;;;;8.75;82.91;99623.88;5089828;28;20032;-82
2023/12/31 07:02:42;;;;;;;32.90;16.05;;;;;;;8.79;82.62;99626.50;5090309;28;20093;-84
2023/12/31 07:05:08;;;;;;;31.02;15.98;;;;;;;8.83;82.19;99629.09;5071920;28;20388;-83
2023/12/31 07:07:33;;;;;;;30.97;15.00;;;;;;;8.86;82.32;99626.44;5071929;28;20028;-83
2023/12/31 07:09:59;;;;;;;32.53;14.90;;;;;;;8.90;81.94;99627.25;5089876;28;20023;-85
2023/12/31 07:12:24;;;;;;;29.83;14.23;;;;;;;8.94;81.76;99641.25;5090023;28;20028;-84
2023/12/31 07:14:50;;;;;;;30.20;13.40;;;;;;;8.96;81.65;99636.84;5089534;28;20032;-83
2023/12/31 07:17:15;;;;;;;30.50;14.90;;;;;;;8.97;81.77;99631.63;5089575;28;20032;-81
2023/12/31 07:19:41;;;;;;;30.23;13.70;;;;;;;8.98;82.00;99637.72;5089845;28;20067;-84
2023/12/31 07:22:06;;;;;;;29.15;13.95;;;;;;;8.99;81.87;99636.84;5107883;28;20028;-82
2023/12/31 07:24:34;;;;;;;31.33;14.83;;;;;;;9.03;81.89;99649.06;5108500;28;20039;-86
2023/12/31 07:27:00;;;;;;;27.70;14.02;;;;;;;9.05;81.74;99678.84;5091907;28;20032;-84
2023/12/31 07:29:25;;;;;;;31.57;15.43;;;;;;;9.07;81.69;99682.31;5071631;28;20369;-81
2023/12/31 07:31:51;;;;;;;33.37;15.33;;;;;;;9.06;81.47;99691.09;5089601;28;20035;-81
2023/12/31 07:34:16;;;;;;;32.50;15.63;;;;;;;9.04;81.80;99700.69;5089439;28;20020;-87
2023/12/31 07:36:41;;;;;;;32.47;15.45;;;;;;;9.05;81.75;99707.72;5089657;28;20036;-84
2023/12/31 07:39:07;;;;;;;34.17;15.93;;;;;;;9.05;81.97;99698.06;5088955;28;20044;-86
2023/12/31 07:41:32;;;;;;;31.67;15.97;;;;;;;9.04;81.83;99701.59;5089426;28;20028;-87
2023/12/31 07:43:58;;;;;;;37.00;15.53;;;;;;;9.04;82.02;99698.94;5089035;28;20043;-84
2023/12/31 07:46:24;;;;;;;34.67;15.20;;;;;;;9.07;81.95;99705.06;5071497;28;20341;-83
2023/12/31 07:48:51;;;;;;;31.88;14.95;;;;;;;9.06;81.86;99709.47;5089129;28;20028;-86
2023/12/31 07:51:17;;;;;;;33.90;14.60;;;;;;;9.08;81.96;99712.94;5090726;28;20278;-82
2023/12/31 07:53:42;;;;;;;33.80;15.55;;;;;;;9.10;81.91;99712.91;5092573;28;20239;-83
2023/12/31 07:56:07;;;;;;;31.27;14.47;;;;;;;9.09;82.15;99705.94;5092524;28;20028;-84
2023/12/31 07:58:33;;;;;;;30.10;14.30;;;;;;;9.08;81.96;99710.31;5089899;28;20024;-83
2023/12/31 08:00:59;;;;;;;33.77;13.97;;;;;;;9.10;82.00;99716.44;5089582;28;20024;-83
2023/12/31 08:03:27;;;;;;;28.85;13.77;;;;;;;9.13;82.12;99710.28;5089416;28;20103;-82
2023/12/31 08:05:52;;;;;;;27.92;13.70;;;;;;;9.16;81.91;99712.88;5089383;28;20401;-84
2023/12/31 08:08:18;;;;;;;31.40;13.37;;;;;;;9.17;81.74;99717.28;5089464;28;20030;-85
2023/12/31 08:10:44;;;;;;;28.37;13.30;;;;;;;9.17;81.91;99723.38;5089398;28;20055;-84
2023/12/31 08:13:09;;;;;;;29.17;13.50;;;;;;;9.18;81.65;99732.16;5089705;28;20657;-84
2023/12/31 08:15:35;;;;;;;31.48;13.63;;;;;;;9.17;82.00;99736.50;5088711;28;20028;-84
2023/12/31 08:18:02;;;;;;;29.30;13.47;;;;;;;9.18;81.96;99742.66;5089210;28;20111;-84
2023/12/31 08:20:28;;;;;;;27.48;13.75;;;;;;;9.17;81.72;99751.41;5093373;28;20031;-82
2023/12/31 08:22:53;;;;;;;32.33;14.57;;;;;;;9.17;81.96;99760.16;5109746;28;20415;-84
2023/12/31 08:25:19;;;;;;;30.50;14.20;;;;;;;9.17;81.95;99760.16;5104368;28;20044;-85
2023/12/31 08:27:45;;;;;;;31.42;14.73;;;;;;;9.19;81.74;99763.66;5089674;28;20040;-85
2023/12/31 08:30:10;;;;;;;24.65;12.88;;;;;;;9.16;81.88;99761.03;5088596;28;20096;-83
2023/12/31 08:32:36;;;;;;;19.97;9.57;;;;;;;9.18;81.87;99766.28;5089187;28;20074;-83
2023/12/31 08:35:01;;;;;;;17.23;6.57;;;;;;;9.20;81.73;99767.16;5088885;28;20031;-83
2023/12/31 08:37:28;;;;;;;15.95;5.97;;;;;;;9.21;81.38;99770.63;5089058;28;20028;-84
2023/12/31 08:39:54;;;;;;;14.43;6.03;;;;;;;9.22;81.54;99768.03;5088947;28;20103;-84
2023/12/31 08:42:19;;;;;;;12.63;5.53;;;;;;;9.25;81.02;99775.88;5089237;28;20115;-84
2023/12/31 08:44:45;;;;;;;11.60;4.47;;;;;;;9.26;80.86;99768.84;5088458;28;20028;-83
2023/12/31 08:47:10;;;;;;;9.90;3.38;;;;;;;9.28;80.63;99774.97;5070946;28;20024;-84
2023/12/31 08:49:36;;;;;;;11.50;2.93;;;;;;;9.30;80.52;99781.09;5089164;28;20082;-83
2023/12/31 08:52:01;;;;;;;9.40;2.80;;;;;;;9.30;80.33;99775.84;5091852;28;20077;-83
2023/12/31 08:54:26;;;;;;;7.90;2.87;;;;;;;9.31;80.51;99777.59;5092541;28;20102;-83
2023/12/31 08:56:52;;;;;;;8.87;3.10;;;;;;;9.32;80.42;99771.47;5092750;28;20024;-83
2023/12/31 08:59:17;;;;;;;8.82;2.22;;;;;;;9.34;79.97;99767.06;5092394;28;20479;-83
2023/12/31 09:01:43;;;;;;;8.00;2.40;;;;;;;9.33;79.77;99766.19;5092692;28;20024;-84
2023/12/31 09:04:10;;;;;;;9.53;3.00;;;;;;;9.36;80.17;99759.16;5074384;28;20032;-83
2023/12/31 09:06:35;;;;;;;8.70;2.13;;;;;;;9.38;80.07;99768.78;5092556;28;20023;-83
2023/12/31 09:09:01;;;;;;;5.40;1.60;;;;;;;9.37;79.83;99772.28;5093007;28;20032;-83
2023/12/31 09:11:26;;;;;;;8.93;2.27;;;;;;;9.39;80.02;99770.53;5092062;28;20044;-84
2023/12/31 09:13:51;;;;;;;7.47;2.30;;;;;;;9.40;79.94;99777.53;5091993;28;20342;-84
2023/12/31 09:16:17;;;;;;;7.03;1.80;;;;;;;9.40;79.99;99779.25;5092061;28;20059;-85
2023/12/31 09:18:42;;;;;;;9.37;2.00;;;;;;;9.41;79.93;99781.88;5092197;28;20039;-83
2023/12/31 09:21:08;;;;;;;8.37;3.00;;;;;;;9.41;79.85;99776.63;5102102;28;20028;-86
2023/12/31 09:23:33;;;;;;;11.00;3.63;;;;;;;9.42;79.57;99788.03;5112169;28;20051;-83
2023/12/31 09:25:59;;;;;;;13.03;4.33;;;;;;;9.42;79.74;99786.25;5102114;28;20733;-82
2023/12/31 09:28:25;;;;;;;13.23;4.68;;;;;;;9.42;79.79;99791.53;5092384;28;20028;-83
2023/12/31 09:30:50;;;;;;;13.37;3.90;;;;;;;9.45;79.72;99793.28;5091415;28;20038;-84
2023/12/31 09:33:16;;;;;;;10.37;3.80;;;;;;;9.45;79.78;99796.75;5091866;28;20111;-85
2023/12/31 09:35:41;;;;;;;11.07;4.27;;;;;;;9.47;79.76;99799.38;5091692;28;20352;-84
2023/12/31 09:38:07;;;;;;;12.83;4.00;;;;;;;9.48;79.73;99799.34;5091705;28;20032;-83
2023/12/31 09:40:32;;;;;;;13.53;3.90;;;;;;;9.53;79.57;99803.72;5091520;28;20201;-84
2023/12/31 09:43:00;;;;;;;11.77;2.67;;;;;;;9.53;79.59;99804.59;5091868;28;20101;-83
2023/12/31 09:45:27;;;;;;;10.25;2.00;;;;;;;9.53;78.99;99814.25;5091469;28;20028;-81
2023/12/31 09:47:53;;;;;;;9.77;2.30;;;;;;;9.52;78.99;99818.63;5091776;28;20024;-83
2023/12/31 09:50:21;;;;;;;7.93;2.53;;;;;;;9.51;78.91;99826.50;5091609;28;20023;-83
2023/12/31 09:52:47;;;;;;;10.98;2.00;;;;;;;9.52;78.74;99829.13;5091530;28;20032;-83
2023/12/31 09:55:18;;;;;;;11.40;2.22;;;;;;;9.52;78.92;99833.50;5091375;28;20710;-82
2023/12/31 09:57:46;;;;;;;9.18;1.90;;;;;;;9.53;78.71;99840.53;5091496;28;20035;-83
2023/12/31 10:00:12;;;;;;;6.77;1.33;;;;;;;9.53;78.83;99836.13;5091608;28;20032;-82
2023/12/31 10:02:37;;;;;;;11.38;1.88;;;;;;;9.55;78.74;99844.03;5072632;28;20258;-82
2023/12/31 10:05:04;;;;;;;13.20;2.30;;;;;;;9.57;78.82;99847.50;5091942;28;20239;-83
2023/12/31 10:07:29;;;;;;;10.85;2.10;;;;;;;9.56;79.03;99837.88;5091196;28;20031;-82
2023/12/31 10:09:56;;;;;;;9.80;1.87;;;;;;;9.59;78.61;99843.09;5072935;28;20036;-83
2023/12/31 10:12:22;;;;;;;11.55;2.00;;;;;;;9.60;78.67;99847.47;5091240;28;20024;-84
2023/12/31 10:14:49;;;;;;;9.70;2.08;;;;;;;9.61;78.85;99859.75;5072730;28;20081;-82
2023/12/31 10:17:15;;;;;;;9.55;1.90;;;;;;;9.62;78.90;99854.47;5091303;28;20476;-83
2023/12/31 10:19:40;;;;;;;10.67;1.33;;;;;;;9.62;78.59;99856.22;5090961;28;20050;-83
2023/12/31 10:22:08;;;;;;;10.45;1.15;;;;;;;9.62;78.44;99857.09;5108952;28;20030;-85
2023/12/31 10:24:33;;;;;;;10.63;1.23;;;;;;;9.61;78.82;99863.22;5109942;28;20035;-84
2023/12/31 10:27:06;;;;;;;7.77;1.20;;;;;;;9.59;78.82;99870.25;5093554;28;20476;-84
2023/12/31 10:29:35;;;;;;;6.85;1.02;;;;;;;9.56;79.11;99877.31;5090785;28;20024;-85
2023/12/31 10:32:02;;;;;;;9.47;1.57;;;;;;;9.54;79.19;99874.69;5090754;28;20035;-82
2023/12/31 10:34:27;;;;;;;9.23;1.20;;;;;;;9.51;79.20;99877.31;5090823;28;20031;-83
2023/12/31 10:37:05;;;;;;;9.97;1.20;;;;;;;9.48;79.03;99880.84;5090552;28;20028;-84
2023/12/31 10:39:38;;;;;;;8.25;1.33;;;;;;;9.45;79.98;99878.22;5090887;28;20475;-84
2023/12/31 10:42:06;;;;;;;8.75;1.35;;;;;;;9.45;79.78;99880.84;5090670;28;20066;-85
2023/12/31 10:44:33;;;;;;;9.40;1.30;;;;;;;9.44;79.66;99888.75;5090482;28;20032;-83
2023/12/31 10:47:04;;;;;;;7.53;1.20;;;;;;;9.41;79.96;99881.75;5090560;28;20036;-84
2023/12/31 10:49:32;;;;;;;10.40;1.53;;;;;;;9.39;80.40;99893.16;5090669;28;20024;-85
2023/12/31 10:52:01;;;;;;;8.43;1.38;;;;;;;9.31;80.92;99885.31;5090187;28;20058;-82
2023/12/31 10:54:51;;;;;;;8.07;1.10;;;;;;;9.27;81.23;99891.44;5090291;28;20067;-86
2023/12/31 10:57:17;;;;;;;6.13;0.75;;;;;;;9.22;80.84;99887.97;5090212;28;20135;-84
2023/12/31 10:59:43;;;;;;;8.60;1.08;;;;;;;9.23;81.46;99894.97;5089772;28;20028;-82
2023/12/31 11:02:16;;;;;;;7.43;1.40;;;;;;;9.25;81.39;99894.09;5090276;28;20028;-83
2023/12/31 11:04:44;;;;;;;10.38;1.60;;;;;;;9.29;81.03;99881.84;5090208;28;20020;-85
2023/12/31 11:07:15;;;;;;;9.82;2.03;;;;;;;9.32;81.69;99884.44;5090324;28;20115;-85
2023/12/31 11:09:46;;;;;;;10.98;2.20;;;;;;;9.34;81.97;99885.31;5090196;28;20444;-82
2023/12/31 11:12:13;;;;;;;11.88;2.40;;;;;;;9.36;81.98;99885.28;5089961;28;20388;-85
2023/12/31 11:14:43;;;;;;;11.07;2.83;;;;;;;9.33;82.99;99880.94;5089180;28;20027;-85
2023/12/31 11:17:17;;;;;;;10.88;2.67;;;;;;;9.36;82.05;99875.66;5089628;28;20016;-83
2023/12/31 11:20:05;;;;;;;24.73;10.00;;;;;;;9.38;82.93;99868.63;5090074;28;20031;-84
2023/12/31 11:23:10;;;;;;;9.52;2.80;;;;;;;9.41;82.84;99873.88;5069723;28;20019;-83
2023/12/31 11:25:37;;;;;;;13.73;4.75;;;;;;;9.45;82.53;99865.09;5013452;28;20040;-82